createdAt,value
2018-09-29T00:01:22.010Z,97.90
2018-09-29T00:03:50.466Z,98.30
2018-09-29T00:06:18.926Z,98.40
2018-09-29T00:08:47.328Z,98.30
2018-09-29T00:11:15.812Z,98.90
2018-09-29T00:13:44.255Z,98.80
2018-09-29T00:16:12.692Z,99.40
2018-09-29T00:18:41.164Z,99.00
2018-09-29T00:21:09.658Z,99.40
2018-09-29T00:23:38.110Z,99.60
2018-09-29T00:26:06.541Z,99.10
2018-09-29T00:28:34.989Z,99.20
2018-09-29T00:31:03.410Z,99.40
2018-09-29T00:33:31.864Z,99.50
2018-09-29T00:36:00.337Z,99.30
2018-09-29T00:38:29.138Z,99.40
2018-09-29T00:40:57.824Z,99.80
2018-09-29T00:43:26.271Z,99.90
2018-09-29T00:45:54.720Z,99.90
2018-09-29T00:48:23.157Z,99.70
2018-09-29T00:50:51.668Z,99.90
2018-09-29T00:53:20.107Z,99.90
2018-09-29T00:55:48.557Z,99.90
2018-09-29T00:58:17.001Z,99.90
2018-09-29T01:00:45.461Z,99.90
2018-09-29T01:03:13.900Z,99.90
2018-09-29T01:05:42.317Z,99.90
2018-09-29T01:08:10.725Z,99.90
2018-09-29T01:10:39.185Z,99.90
2018-09-29T01:13:07.957Z,99.90
2018-09-29T01:15:36.408Z,99.90
2018-09-29T01:18:04.849Z,99.90
2018-09-29T01:20:33.237Z,99.90
2018-09-29T01:23:01.713Z,99.90
2018-09-29T01:25:30.120Z,99.90
2018-09-29T01:27:58.556Z,99.90
2018-09-29T01:30:26.993Z,99.90
2018-09-29T01:32:55.503Z,99.90
2018-09-29T01:35:23.968Z,99.90
2018-09-29T01:37:52.695Z,99.90
2018-09-29T01:40:21.353Z,99.90
2018-09-29T01:42:49.817Z,99.90
2018-09-29T01:45:18.234Z,99.90
2018-09-29T01:47:46.657Z,99.90
2018-09-29T01:50:15.113Z,99.90
2018-09-29T01:52:43.565Z,99.90
2018-09-29T01:55:11.992Z,99.90
2018-09-29T01:57:40.437Z,99.90
2018-09-29T02:00:08.894Z,99.90
2018-09-29T02:02:37.386Z,99.90
2018-09-29T02:05:05.845Z,99.90
2018-09-29T02:07:34.296Z,99.90
2018-09-29T02:10:02.761Z,99.90
2018-09-29T02:12:31.237Z,99.90
2018-09-29T02:14:59.668Z,99.90
2018-09-29T02:17:28.112Z,99.90
2018-09-29T02:19:56.635Z,99.90
2018-09-29T02:22:25.065Z,99.90
2018-09-29T02:24:53.503Z,99.90
2018-09-29T02:27:21.945Z,99.90
2018-09-29T02:29:50.396Z,99.90
2018-09-29T02:32:18.952Z,99.90
2018-09-29T02:34:47.442Z,99.90
2018-09-29T02:37:15.886Z,99.90
2018-09-29T02:39:44.334Z,99.90
2018-09-29T02:42:12.760Z,99.90
2018-09-29T02:44:41.216Z,99.90
2018-09-29T02:47:09.731Z,99.90
2018-09-29T02:49:38.792Z,99.90
2018-09-29T02:52:07.261Z,99.90
2018-09-29T02:54:35.722Z,99.90
2018-09-29T02:57:04.150Z,99.90
2018-09-29T02:59:32.596Z,99.90
2018-09-29T03:02:01.098Z,99.90
2018-09-29T03:04:29.542Z,99.90
2018-09-29T03:06:58.014Z,99.90
2018-09-29T03:09:26.450Z,99.90
2018-09-29T03:11:54.895Z,99.90
2018-09-29T03:14:23.345Z,99.90
2018-09-29T03:16:51.877Z,99.90
2018-09-29T03:19:20.416Z,99.90
2018-09-29T03:21:48.861Z,99.90
2018-09-29T03:24:17.297Z,99.90
2018-09-29T03:26:45.803Z,99.90
2018-09-29T03:29:14.260Z,99.90
2018-09-29T03:31:42.989Z,99.90
2018-09-29T03:34:11.231Z,99.90
2018-09-29T03:36:39.700Z,99.90
2018-09-29T03:39:11.134Z,99.90
2018-09-29T03:41:39.797Z,99.90
2018-09-29T03:44:08.812Z,99.90
2018-09-29T03:46:37.237Z,99.90
2018-09-29T03:49:05.822Z,99.90
2018-09-29T03:51:34.284Z,99.90
2018-09-29T03:54:02.731Z,99.90
2018-09-29T03:56:31.261Z,99.90
2018-09-29T03:58:59.689Z,99.90
2018-09-29T04:01:28.145Z,99.90
2018-09-29T04:03:56.574Z,99.90
2018-09-29T04:06:25.041Z,99.90
2018-09-29T04:08:53.486Z,99.90
2018-09-29T04:11:21.943Z,99.90
2018-09-29T04:13:50.606Z,99.90
2018-09-29T04:16:19.021Z,99.90
2018-09-29T04:18:47.485Z,99.90
2018-09-29T04:21:15.982Z,99.90
2018-09-29T04:23:44.426Z,99.90
2018-09-29T04:26:12.875Z,99.90
2018-09-29T04:28:41.325Z,99.90
2018-09-29T04:31:09.751Z,99.90
2018-09-29T04:33:38.314Z,99.90
2018-09-29T04:36:06.741Z,99.90
2018-09-29T04:38:35.217Z,99.90
2018-09-29T04:41:03.641Z,99.90
2018-09-29T04:43:32.104Z,99.90
2018-09-29T04:46:00.569Z,99.90
2018-09-29T04:48:28.977Z,99.90
2018-09-29T04:50:57.683Z,99.90
2018-09-29T04:53:26.121Z,99.90
2018-09-29T04:55:54.550Z,99.90
2018-09-29T04:58:23.032Z,99.90
2018-09-29T05:00:51.509Z,99.90
2018-09-29T05:03:19.956Z,99.90
2018-09-29T05:05:48.356Z,99.90
2018-09-29T05:08:16.805Z,99.90
2018-09-29T05:10:45.262Z,99.90
2018-09-29T05:13:13.689Z,99.90
2018-09-29T05:15:42.173Z,99.90
2018-09-29T05:18:10.628Z,99.90
2018-09-29T05:20:39.152Z,99.90
2018-09-29T05:23:07.684Z,99.90
2018-09-29T05:25:36.201Z,99.90
2018-09-29T05:28:04.693Z,99.90
2018-09-29T05:30:33.200Z,99.90
2018-09-29T05:33:01.636Z,99.90
2018-09-29T05:35:30.232Z,99.90
2018-09-29T05:37:58.786Z,99.90
2018-09-29T05:40:27.310Z,99.90
2018-09-29T05:42:56.056Z,99.90
2018-09-29T05:45:24.580Z,99.90
2018-09-29T05:47:53.222Z,99.90
2018-09-29T05:50:21.832Z,99.90
2018-09-29T05:52:50.346Z,99.90
2018-09-29T05:55:19.076Z,99.90
2018-09-29T05:57:47.637Z,99.90
2018-09-29T06:00:16.203Z,99.90
2018-09-29T06:02:44.770Z,99.90
2018-09-29T06:05:13.316Z,99.90
2018-09-29T06:07:41.777Z,99.90
2018-09-29T06:10:10.348Z,99.90
2018-09-29T06:12:39.014Z,99.90
2018-09-29T06:15:07.692Z,99.90
2018-09-29T06:17:36.196Z,99.90
2018-09-29T06:20:05.078Z,99.90
2018-09-29T06:22:33.743Z,99.90
2018-09-29T06:25:02.361Z,99.90
2018-09-29T06:27:31.011Z,99.90
2018-09-29T06:29:59.624Z,99.90
2018-09-29T06:32:28.198Z,99.90
2018-09-29T06:34:56.722Z,99.90
2018-09-29T06:37:25.282Z,99.90
2018-09-29T06:39:53.850Z,99.90
2018-09-29T06:42:22.361Z,99.90
2018-09-29T06:44:51.081Z,99.90
2018-09-29T06:47:19.781Z,99.90
2018-09-29T06:49:48.398Z,99.90
2018-09-29T06:52:16.931Z,99.90
2018-09-29T06:54:45.441Z,99.90
2018-09-29T06:57:14.033Z,99.90
2018-09-29T06:59:42.526Z,99.90
2018-09-29T07:02:11.293Z,99.90
2018-09-29T07:04:39.889Z,99.90
2018-09-29T07:07:08.454Z,99.90
2018-09-29T07:09:37.064Z,99.90
2018-09-29T07:12:05.650Z,99.90
2018-09-29T07:14:34.099Z,99.90
2018-09-29T07:17:05.296Z,99.90
2018-09-29T07:19:34.126Z,99.90
2018-09-29T07:22:02.754Z,99.90
2018-09-29T07:24:31.265Z,99.90
2018-09-29T07:26:59.998Z,99.90
2018-09-29T07:29:28.595Z,99.90
2018-09-29T07:31:57.150Z,99.90
2018-09-29T07:34:25.984Z,99.90
2018-09-29T07:36:54.966Z,99.90
2018-09-29T07:39:23.403Z,99.90
2018-09-29T07:41:51.919Z,99.90
2018-09-29T07:44:20.601Z,99.90
2018-09-29T07:46:49.090Z,99.90
2018-09-29T07:49:18.146Z,99.90
2018-09-29T07:51:46.580Z,99.90
2018-09-29T07:54:15.204Z,99.90
2018-09-29T07:56:43.820Z,99.90
2018-09-29T07:59:12.373Z,99.90
2018-09-29T08:01:40.953Z,99.90
2018-09-29T08:04:09.520Z,99.90
2018-09-29T08:06:38.028Z,99.90
2018-09-29T08:09:07.068Z,99.90
2018-09-29T08:11:35.819Z,99.90
2018-09-29T08:14:04.537Z,99.90
2018-09-29T08:16:33.008Z,99.90
2018-09-29T08:19:01.465Z,99.90
2018-09-29T08:21:30.036Z,99.90
2018-09-29T08:23:58.931Z,99.90
2018-09-29T08:26:27.452Z,99.90
2018-09-29T08:28:56.041Z,99.90
2018-09-29T08:31:24.804Z,99.90
2018-09-29T08:33:53.440Z,99.90
2018-09-29T08:36:21.941Z,99.90
2018-09-29T08:38:50.469Z,99.90
2018-09-29T08:41:19.049Z,99.90
2018-09-29T08:43:47.590Z,99.80
2018-09-29T08:46:16.189Z,99.00
2018-09-29T08:48:44.940Z,98.90
2018-09-29T08:51:13.576Z,99.20
2018-09-29T08:53:42.309Z,99.30
2018-09-29T08:56:10.820Z,98.70
2018-09-29T08:58:39.313Z,98.90
2018-09-29T09:01:07.797Z,98.60
2018-09-29T09:03:36.310Z,98.00
2018-09-29T09:06:04.949Z,98.30
2018-09-29T09:08:33.597Z,98.30
2018-09-29T09:11:02.026Z,98.10
2018-09-29T09:13:31.318Z,98.80
2018-09-29T09:15:59.844Z,98.00
2018-09-29T09:18:28.436Z,97.30
2018-09-29T09:20:56.917Z,97.00
2018-09-29T09:23:25.523Z,96.80
2018-09-29T09:25:54.065Z,96.20
2018-09-29T09:28:22.569Z,96.20
2018-09-29T09:30:51.221Z,96.10
2018-09-29T09:33:19.654Z,95.20
2018-09-29T09:35:48.163Z,95.00
2018-09-29T09:38:16.681Z,94.00
2018-09-29T09:40:45.185Z,94.30
2018-09-29T09:43:13.682Z,95.00
2018-09-29T09:45:42.122Z,94.50
2018-09-29T09:48:10.595Z,94.50
2018-09-29T09:50:39.082Z,93.60
2018-09-29T09:53:07.621Z,92.70
2018-09-29T09:55:36.300Z,92.20
2018-09-29T09:58:04.763Z,92.90
2018-09-29T10:00:38.706Z,91.90
2018-09-29T10:03:12.511Z,88.50
2018-09-29T10:05:41.109Z,87.60
2018-09-29T10:08:09.561Z,87.00
2018-09-29T10:10:38.036Z,83.90
2018-09-29T10:13:06.524Z,75.00
2018-09-29T10:15:35.004Z,73.10
2018-09-29T10:18:03.710Z,69.10
2018-09-29T10:20:32.197Z,69.00
2018-09-29T10:23:00.678Z,66.10
2018-09-29T10:25:29.125Z,62.80
2018-09-29T10:27:57.594Z,65.20
2018-09-29T10:30:26.109Z,62.70
2018-09-29T10:32:54.556Z,60.70
2018-09-29T10:35:23.174Z,59.70
2018-09-29T10:37:51.703Z,57.40
2018-09-29T10:40:20.189Z,60.60
2018-09-29T10:42:48.653Z,59.20
2018-09-29T10:45:17.108Z,57.80
2018-09-29T10:47:45.659Z,58.70
2018-09-29T10:50:14.161Z,56.50
2018-09-29T10:52:43.388Z,56.00
2018-09-29T10:55:12.109Z,55.60
2018-09-29T10:57:40.736Z,57.10
2018-09-29T11:00:09.257Z,55.30
2018-09-29T11:02:37.915Z,54.40
2018-09-29T11:05:06.482Z,53.00
2018-09-29T11:07:34.989Z,52.50
2018-09-29T11:10:03.478Z,53.90
2018-09-29T11:12:31.964Z,53.20
2018-09-29T11:15:00.474Z,53.40
2018-09-29T11:17:29.014Z,51.90
2018-09-29T11:19:57.472Z,53.00
2018-09-29T11:22:26.007Z,51.40
2018-09-29T11:24:54.548Z,50.40
2018-09-29T11:27:23.149Z,51.50
2018-09-29T11:29:51.736Z,51.30
2018-09-29T11:32:20.173Z,53.40
2018-09-29T11:34:48.588Z,51.50
2018-09-29T11:37:17.055Z,51.30
2018-09-29T11:39:45.550Z,50.70
2018-09-29T11:42:14.009Z,49.60
2018-09-29T11:44:42.504Z,49.80
2018-09-29T11:47:10.977Z,50.00
2018-09-29T11:49:39.457Z,51.60
2018-09-29T11:52:07.889Z,51.40
2018-09-29T11:54:36.354Z,49.50
2018-09-29T11:57:04.796Z,51.20
2018-09-29T11:59:33.820Z,50.10
2018-09-29T12:02:02.395Z,51.00
2018-09-29T12:04:31.689Z,50.00
2018-09-29T12:07:00.427Z,52.30
2018-09-29T12:09:29.048Z,50.10
2018-09-29T12:11:57.469Z,48.80
2018-09-29T12:14:25.904Z,50.80
2018-09-29T12:16:54.413Z,52.50
2018-09-29T12:19:22.904Z,51.00
2018-09-29T12:21:51.387Z,49.70
2018-09-29T12:24:19.845Z,49.90
2018-09-29T12:26:48.338Z,50.00
2018-09-29T12:29:16.865Z,50.80
2018-09-29T12:31:46.169Z,49.30
2018-09-29T12:34:14.594Z,49.70
2018-09-29T12:36:43.096Z,49.00
2018-09-29T12:39:11.829Z,48.00
2018-09-29T12:41:40.212Z,48.20
2018-09-29T12:44:08.827Z,50.10
2018-09-29T12:46:37.269Z,50.20
2018-09-29T12:49:05.940Z,49.60
2018-09-29T12:51:34.374Z,48.60
2018-09-29T12:54:02.840Z,48.50
2018-09-29T12:56:31.337Z,49.90
2018-09-29T12:58:59.829Z,49.80
2018-09-29T13:01:28.240Z,49.10
2018-09-29T13:03:56.721Z,50.10
2018-09-29T13:06:25.161Z,49.50
2018-09-29T13:08:53.577Z,50.00
2018-09-29T13:11:22.079Z,50.50
2018-09-29T13:13:50.581Z,48.60
2018-09-29T13:16:19.021Z,50.40
2018-09-29T13:18:47.453Z,50.80
2018-09-29T13:21:15.908Z,48.30
2018-09-29T13:23:44.360Z,50.40
2018-09-29T13:26:12.805Z,51.20
2018-09-29T13:28:41.259Z,49.50
2018-09-29T13:31:09.660Z,50.00
2018-09-29T13:33:38.161Z,50.80
2018-09-29T13:36:06.692Z,49.70
2018-09-29T13:38:35.225Z,51.10
2018-09-29T13:41:03.640Z,49.60
2018-09-29T13:43:32.069Z,49.30
2018-09-29T13:46:00.558Z,48.90
2018-09-29T13:48:28.973Z,48.30
2018-09-29T13:50:57.445Z,48.10
2018-09-29T13:53:25.895Z,48.90
2018-09-29T13:55:54.559Z,47.80
2018-09-29T13:58:23.097Z,47.60
2018-09-29T14:00:51.545Z,48.40
2018-09-29T14:03:20.036Z,48.10
2018-09-29T14:05:48.493Z,48.50
2018-09-29T14:08:16.914Z,47.90
2018-09-29T14:10:45.365Z,47.80
2018-09-29T14:13:13.849Z,47.80
2018-09-29T14:15:42.288Z,48.10
2018-09-29T14:18:10.733Z,48.30
2018-09-29T14:20:39.182Z,48.00
2018-09-29T14:23:07.616Z,48.30
2018-09-29T14:25:36.033Z,48.40
2018-09-29T14:28:04.521Z,48.80
2018-09-29T14:30:32.987Z,47.60
2018-09-29T14:33:01.456Z,48.70
2018-09-29T14:35:29.968Z,48.90
2018-09-29T14:37:58.430Z,47.70
2018-09-29T14:40:26.877Z,49.00
2018-09-29T14:42:55.307Z,49.60
2018-09-29T14:45:23.731Z,48.30
2018-09-29T14:47:52.166Z,48.40
2018-09-29T14:50:20.717Z,47.70
2018-09-29T14:52:49.200Z,48.80
2018-09-29T14:55:17.644Z,49.20
2018-09-29T14:57:46.103Z,48.90
2018-09-29T15:00:14.545Z,49.40
2018-09-29T15:02:43.014Z,49.10
2018-09-29T15:05:11.466Z,48.90
2018-09-29T15:07:39.987Z,49.40
2018-09-29T15:10:08.458Z,49.60
2018-09-29T15:12:36.905Z,50.20
2018-09-29T15:15:06.604Z,50.20
2018-09-29T15:17:35.442Z,50.40
2018-09-29T15:20:04.032Z,50.40
2018-09-29T15:22:32.638Z,49.80
2018-09-29T15:25:01.288Z,50.10
2018-09-29T15:27:29.741Z,50.60
2018-09-29T15:29:58.245Z,52.10
2018-09-29T15:32:26.688Z,52.40
2018-09-29T15:34:55.184Z,53.00
2018-09-29T15:37:24.005Z,52.70
2018-09-29T15:39:53.538Z,53.90
2018-09-29T15:42:22.134Z,53.10
2018-09-29T15:44:50.982Z,54.00
2018-09-29T15:47:19.913Z,55.00
2018-09-29T15:49:48.708Z,54.60
2018-09-29T15:52:17.544Z,55.10
2018-09-29T15:54:46.373Z,54.90
2018-09-29T15:57:15.005Z,55.20
2018-09-29T15:59:43.789Z,55.50
2018-09-29T16:02:12.716Z,56.20
2018-09-29T16:04:41.419Z,56.80
2018-09-29T16:07:10.259Z,57.00
2018-09-29T16:09:38.934Z,57.70
2018-09-29T16:12:07.525Z,58.40
2018-09-29T16:14:36.213Z,60.00
2018-09-29T16:17:04.929Z,60.30
2018-09-29T16:19:33.736Z,61.10
2018-09-29T16:22:02.394Z,62.10
2018-09-29T16:24:31.153Z,61.90
2018-09-29T16:26:59.829Z,62.00
2018-09-29T16:29:28.749Z,62.20
2018-09-29T16:31:57.692Z,63.80
2018-09-29T16:34:26.645Z,63.70
2018-09-29T16:36:55.424Z,64.50
2018-09-29T16:39:24.422Z,64.40
2018-09-29T16:41:53.279Z,65.00
2018-09-29T16:44:22.133Z,65.20
2018-09-29T16:46:50.973Z,65.80
2018-09-29T16:49:19.781Z,66.40
2018-09-29T16:51:48.509Z,68.20
2018-09-29T16:54:17.390Z,68.90
2018-09-29T16:56:46.346Z,69.60
2018-09-29T16:59:15.207Z,69.20
2018-09-29T17:01:44.244Z,69.20
2018-09-29T17:04:13.324Z,69.00
2018-09-29T17:06:42.296Z,70.40
2018-09-29T17:09:12.333Z,71.20
2018-09-29T17:11:41.177Z,70.60
2018-09-29T17:14:09.742Z,72.00
2018-09-29T17:16:38.428Z,72.20
2018-09-29T17:19:07.553Z,73.30
2018-09-29T17:21:36.142Z,73.80
2018-09-29T17:24:04.677Z,73.90
2018-09-29T17:26:33.136Z,73.00
2018-09-29T17:29:01.680Z,73.40
2018-09-29T17:31:30.373Z,74.70
2018-09-29T17:33:58.825Z,75.20
2018-09-29T17:36:27.344Z,75.50
2018-09-29T17:38:55.906Z,75.90
2018-09-29T17:41:24.478Z,79.00
2018-09-29T17:43:52.948Z,77.10
2018-09-29T17:46:21.468Z,76.40
2018-09-29T17:48:50.021Z,77.00
2018-09-29T17:51:19.348Z,77.00
2018-09-29T17:53:47.849Z,77.40
2018-09-29T17:56:16.480Z,77.90
2018-09-29T17:58:45.097Z,77.90
2018-09-29T18:01:13.637Z,78.30
2018-09-29T18:03:42.156Z,78.70
2018-09-29T18:06:10.953Z,78.80
2018-09-29T18:08:39.629Z,78.60
2018-09-29T18:11:08.187Z,79.40
2018-09-29T18:13:36.783Z,80.00
2018-09-29T18:16:05.384Z,79.90
2018-09-29T18:18:33.962Z,81.50
2018-09-29T18:21:02.433Z,86.60
2018-09-29T18:23:30.865Z,85.90
2018-09-29T18:25:59.424Z,83.90
2018-09-29T18:28:27.950Z,83.70
2018-09-29T18:30:56.547Z,84.00
2018-09-29T18:33:25.029Z,83.60
2018-09-29T18:35:53.633Z,83.80
2018-09-29T18:38:22.119Z,84.40
2018-09-29T18:40:50.648Z,85.30
2018-09-29T18:43:19.196Z,85.80
2018-09-29T18:45:47.739Z,84.70
2018-09-29T18:48:16.212Z,85.70
2018-09-29T18:50:44.781Z,85.70
2018-09-29T18:53:13.223Z,86.00
2018-09-29T18:55:41.942Z,86.30
2018-09-29T18:58:10.480Z,86.60
2018-09-29T19:00:38.968Z,86.60
2018-09-29T19:03:07.720Z,87.00
2018-09-29T19:05:36.307Z,88.30
2018-09-29T19:08:04.936Z,87.10
2018-09-29T19:10:33.415Z,88.60
2018-09-29T19:13:02.097Z,88.70
2018-09-29T19:15:30.698Z,89.00
2018-09-29T19:17:59.295Z,89.90
2018-09-29T19:20:28.156Z,89.70
2018-09-29T19:22:56.722Z,89.90
2018-09-29T19:25:25.426Z,90.80
2018-09-29T19:27:54.094Z,90.30
2018-09-29T19:30:22.696Z,90.50
2018-09-29T19:32:51.205Z,90.40
2018-09-29T19:35:19.977Z,90.30
2018-09-29T19:37:48.676Z,91.50
2018-09-29T19:40:17.291Z,91.00
2018-09-29T19:42:46.072Z,91.10
2018-09-29T19:45:14.665Z,91.80
2018-09-29T19:47:43.382Z,91.60
2018-09-29T19:50:12.001Z,92.10
2018-09-29T19:52:40.926Z,92.20
2018-09-29T19:55:09.620Z,92.70
2018-09-29T19:57:38.400Z,92.90
2018-09-29T20:00:07.392Z,92.50
2018-09-29T20:02:36.567Z,92.70
2018-09-29T20:05:05.849Z,94.00
2018-09-29T20:07:34.825Z,93.70
2018-09-29T20:10:03.413Z,94.10
2018-09-29T20:12:31.950Z,94.30
2018-09-29T20:15:00.670Z,94.50
2018-09-29T20:17:29.282Z,94.80
2018-09-29T20:19:57.948Z,95.40
2018-09-29T20:22:26.938Z,95.70
2018-09-29T20:24:55.758Z,95.70
2018-09-29T20:27:24.406Z,95.80
2018-09-29T20:29:53.030Z,96.10
2018-09-29T20:32:21.844Z,96.00
2018-09-29T20:34:50.871Z,96.60
2018-09-29T20:37:19.818Z,96.40
2018-09-29T20:39:48.958Z,96.70
2018-09-29T20:42:17.747Z,97.20
2018-09-29T20:44:46.392Z,97.20
2018-09-29T20:47:15.188Z,97.60
2018-09-29T20:49:43.977Z,97.70
2018-09-29T20:52:12.527Z,97.90
2018-09-29T20:54:41.233Z,98.50
2018-09-29T20:57:09.676Z,98.80
2018-09-29T20:59:38.582Z,98.40
2018-09-29T21:02:07.365Z,98.10
2018-09-29T21:04:36.020Z,98.50
2018-09-29T21:07:04.512Z,98.80
2018-09-29T21:09:33.141Z,99.10
2018-09-29T21:12:01.830Z,99.30
2018-09-29T21:14:30.420Z,99.40
2018-09-29T21:16:59.126Z,98.90
2018-09-29T21:19:27.617Z,99.30
2018-09-29T21:21:56.105Z,99.90
2018-09-29T21:24:24.719Z,99.70
2018-09-29T21:26:53.320Z,99.90
2018-09-29T21:29:22.128Z,99.90
2018-09-29T21:31:50.873Z,99.90
2018-09-29T21:34:19.604Z,99.90
2018-09-29T21:36:48.356Z,99.90
2018-09-29T21:39:17.078Z,99.90
2018-09-29T21:41:45.764Z,99.90
2018-09-29T21:44:14.418Z,99.90
2018-09-29T21:46:43.013Z,99.90
2018-09-29T21:49:11.767Z,99.90
2018-09-29T21:51:40.609Z,99.90
2018-09-29T21:54:09.382Z,99.90
2018-09-29T21:56:38.327Z,99.90
2018-09-29T21:59:06.953Z,99.90
2018-09-29T22:01:35.488Z,99.90
2018-09-29T22:04:04.369Z,99.90
2018-09-29T22:06:33.096Z,99.90
2018-09-29T22:09:01.850Z,99.90
2018-09-29T22:11:30.608Z,99.90
2018-09-29T22:13:59.389Z,99.90
2018-09-29T22:16:28.420Z,99.90
2018-09-29T22:18:57.120Z,99.90
2018-09-29T22:21:25.960Z,99.90
2018-09-29T22:23:54.836Z,99.90
2018-09-29T22:26:23.595Z,99.90
2018-09-29T22:28:52.572Z,99.90
2018-09-29T22:31:21.488Z,99.90
2018-09-29T22:33:50.349Z,99.90
2018-09-29T22:36:19.364Z,99.90
2018-09-29T22:38:48.202Z,99.90
2018-09-29T22:41:17.077Z,99.90
2018-09-29T22:43:46.018Z,99.90
2018-09-29T22:46:14.718Z,99.90
2018-09-29T22:48:43.489Z,99.90
2018-09-29T22:51:12.341Z,99.90
2018-09-29T22:53:41.327Z,99.90
2018-09-29T22:56:10.141Z,99.90
2018-09-29T22:58:38.838Z,99.90
2018-09-29T23:01:08.355Z,99.90
2018-09-29T23:03:37.374Z,99.90
2018-09-29T23:06:06.305Z,99.90
2018-09-29T23:08:35.127Z,99.90
2018-09-29T23:11:07.847Z,99.90
2018-09-29T23:13:36.767Z,99.90
2018-09-29T23:16:05.303Z,99.90
2018-09-29T23:18:33.844Z,99.90
2018-09-29T23:21:02.429Z,99.90
2018-09-29T23:23:30.942Z,99.90
2018-09-29T23:25:59.355Z,99.90
2018-09-29T23:28:27.844Z,99.90
2018-09-29T23:30:56.353Z,99.90
2018-09-29T23:33:24.864Z,99.90
2018-09-29T23:35:53.380Z,99.90
2018-09-29T23:38:21.898Z,99.90
2018-09-29T23:40:50.395Z,99.90
2018-09-29T23:43:18.934Z,99.90
2018-09-29T23:45:47.495Z,99.90
2018-09-29T23:48:16.079Z,99.90
2018-09-29T23:50:44.616Z,99.90
2018-09-29T23:53:13.077Z,99.90
2018-09-29T23:55:41.767Z,99.90
2018-09-29T23:58:10.622Z,99.90
